sensor_id;sensor_type;location;lat;lon;timestamp;pressure;altitude;pressure_sealevel;temperature;humidity
55010;BME280;40903;51.638;7.528;2023-05-18T00:02:20;102174.09;;;7.33;86.52
55010;BME280;40903;51.638;7.528;2023-05-18T00:04:45;102180.81;;;7.31;86.69
55010;BME280;40903;51.638;7.528;2023-05-18T00:07:11;102180.34;;;7.22;87.03
55010;BME280;40903;51.638;7.528;2023-05-18T00:09:37;102177.00;;;7.20;87.15
55010;BME280;40903;51.638;7.528;2023-05-18T00:12:04;102171.56;;;7.20;86.91
55010;BME280;40903;51.638;7.528;2023-05-18T00:14:30;102170.97;;;7.18;87.01
55010;BME280;40903;51.638;7.528;2023-05-18T00:16:55;102173.34;;;7.15;87.13
55010;BME280;40903;51.638;7.528;2023-05-18T00:19:22;102173.69;;;7.07;87.47
55010;BME280;40903;51.638;7.528;2023-05-18T00:21:49;102173.56;;;7.02;88.04
55010;BME280;40903;51.638;7.528;2023-05-18T00:24:16;102174.63;;;7.01;88.20
55010;BME280;40903;51.638;7.528;2023-05-18T00:26:44;102171.31;;;6.99;87.96
55010;BME280;40903;51.638;7.528;2023-05-18T00:29:10;102176.84;;;6.92;88.28
55010;BME280;40903;51.638;7.528;2023-05-18T00:31:36;102171.03;;;6.89;88.42
55010;BME280;40903;51.638;7.528;2023-05-18T00:34:10;102166.41;;;6.89;88.60
55010;BME280;40903;51.638;7.528;2023-05-18T00:36:36;102177.50;;;6.88;88.84
55010;BME280;40903;51.638;7.528;2023-05-18T00:39:06;102173.88;;;6.94;88.22
55010;BME280;40903;51.638;7.528;2023-05-18T00:41:31;102179.97;;;6.89;88.50
55010;BME280;40903;51.638;7.528;2023-05-18T00:43:58;102172.56;;;6.85;88.68
55010;BME280;40903;51.638;7.528;2023-05-18T00:46:25;102175.28;;;6.85;89.34
55010;BME280;40903;51.638;7.528;2023-05-18T00:48:51;102169.47;;;6.81;89.02
55010;BME280;40903;51.638;7.528;2023-05-18T00:51:20;102177.81;;;6.80;89.29
55010;BME280;40903;51.638;7.528;2023-05-18T00:53:47;102175.13;;;6.80;89.25
55010;BME280;40903;51.638;7.528;2023-05-18T00:56:14;102179.56;;;6.74;90.31
55010;BME280;40903;51.638;7.528;2023-05-18T00:58:40;102176.94;;;6.68;90.41
55010;BME280;40903;51.638;7.528;2023-05-18T01:01:07;102178.00;;;6.67;89.93
55010;BME280;40903;51.638;7.528;2023-05-18T01:03:37;102178.84;;;6.67;90.58
55010;BME280;40903;51.638;7.528;2023-05-18T01:06:04;102170.50;;;6.69;90.54
55010;BME280;40903;51.638;7.528;2023-05-18T01:08:30;102171.78;;;6.66;89.81
55010;BME280;40903;51.638;7.528;2023-05-18T01:11:06;102170.34;;;6.64;89.43
55010;BME280;40903;51.638;7.528;2023-05-18T01:13:57;102164.91;;;6.64;90.08
55010;BME280;40903;51.638;7.528;2023-05-18T01:16:30;102168.81;;;6.68;90.31
55010;BME280;40903;51.638;7.528;2023-05-18T01:24:47;102174.78;;;6.58;91.01
55010;BME280;40903;51.638;7.528;2023-05-18T01:27:15;102177.97;;;6.55;91.22
55010;BME280;40903;51.638;7.528;2023-05-18T01:29:44;102180.91;;;6.54;91.92
55010;BME280;40903;51.638;7.528;2023-05-18T01:32:19;102176.97;;;6.50;91.60
55010;BME280;40903;51.638;7.528;2023-05-18T01:34:46;102188.28;;;6.47;92.42
55010;BME280;40903;51.638;7.528;2023-05-18T01:37:12;102180.38;;;6.45;91.93
55010;BME280;40903;51.638;7.528;2023-05-18T01:39:38;102182.72;;;6.42;91.88
55010;BME280;40903;51.638;7.528;2023-05-18T01:42:10;102186.50;;;6.41;92.10
55010;BME280;40903;51.638;7.528;2023-05-18T01:44:47;102191.75;;;6.36;92.36
55010;BME280;40903;51.638;7.528;2023-05-18T01:47:15;102189.75;;;6.31;92.84
55010;BME280;40903;51.638;7.528;2023-05-18T01:49:54;102178.72;;;6.26;93.44
55010;BME280;40903;51.638;7.528;2023-05-18T01:54:54;102182.75;;;6.24;93.51
55010;BME280;40903;51.638;7.528;2023-05-18T01:57:23;102176.94;;;6.20;93.59
55010;BME280;40903;51.638;7.528;2023-05-18T01:59:50;102181.53;;;6.20;93.68
55010;BME280;40903;51.638;7.528;2023-05-18T02:02:16;102180.47;;;6.21;93.98
55010;BME280;40903;51.638;7.528;2023-05-18T02:04:42;102183.50;;;6.13;94.73
55010;BME280;40903;51.638;7.528;2023-05-18T02:07:07;102183.94;;;6.10;94.71
55010;BME280;40903;51.638;7.528;2023-05-18T02:09:32;102179.59;;;6.09;94.96
55010;BME280;40903;51.638;7.528;2023-05-18T02:11:58;102177.91;;;6.08;95.07
55010;BME280;40903;51.638;7.528;2023-05-18T02:14:23;102180.84;;;6.06;95.08
55010;BME280;40903;51.638;7.528;2023-05-18T02:16:48;102178.97;;;6.07;95.40
55010;BME280;40903;51.638;7.528;2023-05-18T02:19:18;102181.31;;;6.03;95.99
55010;BME280;40903;51.638;7.528;2023-05-18T02:21:44;102185.50;;;5.99;96.39
55010;BME280;40903;51.638;7.528;2023-05-18T02:24:10;102183.03;;;5.98;96.50
55010;BME280;40903;51.638;7.528;2023-05-18T02:26:36;102182.66;;;5.94;96.63
55010;BME280;40903;51.638;7.528;2023-05-18T02:29:05;102181.66;;;5.89;97.13
55010;BME280;40903;51.638;7.528;2023-05-18T02:31:31;102188.13;;;5.88;97.20
55010;BME280;40903;51.638;7.528;2023-05-18T02:33:56;102182.09;;;5.86;97.60
55010;BME280;40903;51.638;7.528;2023-05-18T02:36:22;102185.28;;;5.83;97.21
55010;BME280;40903;51.638;7.528;2023-05-18T02:38:47;102184.06;;;5.79;97.58
55010;BME280;40903;51.638;7.528;2023-05-18T02:41:13;102184.06;;;5.79;97.76
55010;BME280;40903;51.638;7.528;2023-05-18T02:43:38;102191.53;;;5.77;97.91
55010;BME280;40903;51.638;7.528;2023-05-18T02:46:04;102184.69;;;5.74;98.04
55010;BME280;40903;51.638;7.528;2023-05-18T02:48:29;102192.22;;;5.72;98.18
55010;BME280;40903;51.638;7.528;2023-05-18T02:50:55;102201.00;;;5.68;98.61
55010;BME280;40903;51.638;7.528;2023-05-18T02:53:21;102191.88;;;5.63;98.70
55010;BME280;40903;51.638;7.528;2023-05-18T02:55:46;102193.81;;;5.56;98.82
55010;BME280;40903;51.638;7.528;2023-05-18T02:58:13;102193.59;;;5.57;98.93
55010;BME280;40903;51.638;7.528;2023-05-18T03:00:39;102195.09;;;5.53;98.76
55010;BME280;40903;51.638;7.528;2023-05-18T03:03:04;102193.88;;;5.49;98.42
55010;BME280;40903;51.638;7.528;2023-05-18T03:05:30;102194.91;;;5.48;99.00
55010;BME280;40903;51.638;7.528;2023-05-18T03:07:55;102200.41;;;5.42;98.83
55010;BME280;40903;51.638;7.528;2023-05-18T03:10:22;102197.69;;;5.42;99.48
55010;BME280;40903;51.638;7.528;2023-05-18T03:12:47;102196.84;;;5.41;99.54
55010;BME280;40903;51.638;7.528;2023-05-18T03:15:14;102194.59;;;5.38;99.09
55010;BME280;40903;51.638;7.528;2023-05-18T03:17:43;102196.69;;;5.36;99.39
55010;BME280;40903;51.638;7.528;2023-05-18T03:20:09;102195.03;;;5.35;99.26
55010;BME280;40903;51.638;7.528;2023-05-18T03:22:39;102195.66;;;5.37;100.00
55010;BME280;40903;51.638;7.528;2023-05-18T03:25:06;102200.22;;;5.37;99.78
55010;BME280;40903;51.638;7.528;2023-05-18T03:27:32;102197.50;;;5.37;99.55
55010;BME280;40903;51.638;7.528;2023-05-18T03:29:58;102198.13;;;5.39;99.35
55010;BME280;40903;51.638;7.528;2023-05-18T03:32:23;102200.06;;;5.32;99.19
55010;BME280;40903;51.638;7.528;2023-05-18T03:34:49;102197.13;;;5.33;99.17
55010;BME280;40903;51.638;7.528;2023-05-18T03:37:16;102196.31;;;5.33;99.16
55010;BME280;40903;51.638;7.528;2023-05-18T03:39:41;102198.59;;;5.29;99.01
55010;BME280;40903;51.638;7.528;2023-05-18T03:42:07;102203.56;;;5.32;99.36
55010;BME280;40903;51.638;7.528;2023-05-18T03:44:32;102204.03;;;5.29;99.48
55010;BME280;40903;51.638;7.528;2023-05-18T03:46:58;102198.16;;;5.32;99.60
55010;BME280;40903;51.638;7.528;2023-05-18T03:49:23;102208.56;;;5.35;99.38
55010;BME280;40903;51.638;7.528;2023-05-18T03:51:48;102209.81;;;5.33;99.14
55010;BME280;40903;51.638;7.528;2023-05-18T03:54:14;102203.38;;;5.34;99.68
55010;BME280;40903;51.638;7.528;2023-05-18T03:56:39;102206.06;;;5.34;99.87
55010;BME280;40903;51.638;7.528;2023-05-18T03:59:05;102206.06;;;5.34;99.81
55010;BME280;40903;51.638;7.528;2023-05-18T04:01:31;102200.06;;;5.32;99.37
55010;BME280;40903;51.638;7.528;2023-05-18T04:03:57;102203.56;;;5.32;99.77
55010;BME280;40903;51.638;7.528;2023-05-18T04:06:23;102203.16;;;5.35;100.00
55010;BME280;40903;51.638;7.528;2023-05-18T04:08:53;102203.16;;;5.35;99.58
55010;BME280;40903;51.638;7.528;2023-05-18T04:11:19;102204.38;;;5.39;99.04
55010;BME280;40903;51.638;7.528;2023-05-18T04:13:45;102208.28;;;5.43;99.36
55010;BME280;40903;51.638;7.528;2023-05-18T04:16:12;102211.59;;;5.45;99.39
55010;BME280;40903;51.638;7.528;2023-05-18T04:18:40;102212.63;;;5.44;99.46
55010;BME280;40903;51.638;7.528;2023-05-18T04:21:06;102217.84;;;5.46;99.48
55010;BME280;40903;51.638;7.528;2023-05-18T04:23:31;102217.41;;;5.49;99.03
55010;BME280;40903;51.638;7.528;2023-05-18T04:26:04;102221.31;;;5.53;98.86
55010;BME280;40903;51.638;7.528;2023-05-18T04:28:30;102223.19;;;5.52;98.53
55010;BME280;40903;51.638;7.528;2023-05-18T04:30:56;102221.53;;;5.51;99.33
55010;BME280;40903;51.638;7.528;2023-05-18T04:33:21;102225.47;;;5.55;99.18
55010;BME280;40903;51.638;7.528;2023-05-18T04:35:50;102223.34;;;5.57;98.91
55010;BME280;40903;51.638;7.528;2023-05-18T04:38:19;102217.88;;;5.64;99.00
55010;BME280;40903;51.638;7.528;2023-05-18T04:40:47;102218.03;;;5.68;99.35
55010;BME280;40903;51.638;7.528;2023-05-18T04:43:14;102220.09;;;5.73;99.14
55010;BME280;40903;51.638;7.528;2023-05-18T04:45:39;102224.00;;;5.77;98.93
55010;BME280;40903;51.638;7.528;2023-05-18T04:48:05;102225.88;;;5.83;98.19
55010;BME280;40903;51.638;7.528;2023-05-18T04:50:30;102230.63;;;5.87;98.10
55010;BME280;40903;51.638;7.528;2023-05-18T04:52:56;102234.28;;;5.93;97.61
55010;BME280;40903;51.638;7.528;2023-05-18T04:55:22;102234.63;;;6.03;97.52
55010;BME280;40903;51.638;7.528;2023-05-18T04:57:52;102234.09;;;6.12;98.31
55010;BME280;40903;51.638;7.528;2023-05-18T05:00:20;102230.66;;;6.23;97.86
55010;BME280;40903;51.638;7.528;2023-05-18T05:02:46;102229.31;;;6.32;96.06
55010;BME280;40903;51.638;7.528;2023-05-18T05:05:11;102242.47;;;6.47;96.01
55010;BME280;40903;51.638;7.528;2023-05-18T05:07:37;102235.25;;;6.59;94.31
55010;BME280;40903;51.638;7.528;2023-05-18T05:10:02;102230.72;;;6.71;93.62
55010;BME280;40903;51.638;7.528;2023-05-18T05:12:28;102234.53;;;6.81;92.00
55010;BME280;40903;51.638;7.528;2023-05-18T05:14:53;102229.03;;;6.88;90.83
55010;BME280;40903;51.638;7.528;2023-05-18T05:17:19;102231.41;;;6.96;90.23
55010;BME280;40903;51.638;7.528;2023-05-18T05:19:44;102238.78;;;7.07;90.06
55010;BME280;40903;51.638;7.528;2023-05-18T05:22:10;102234.81;;;7.21;89.72
55010;BME280;40903;51.638;7.528;2023-05-18T05:24:35;102235.91;;;7.31;88.24
55010;BME280;40903;51.638;7.528;2023-05-18T05:27:00;102234.53;;;7.40;87.29
55010;BME280;40903;51.638;7.528;2023-05-18T05:29:26;102231.81;;;7.52;87.48
55010;BME280;40903;51.638;7.528;2023-05-18T05:31:52;102237.03;;;7.65;85.92
55010;BME280;40903;51.638;7.528;2023-05-18T05:34:17;102238.47;;;7.78;86.25
55010;BME280;40903;51.638;7.528;2023-05-18T05:36:43;102246.03;;;7.88;85.34
55010;BME280;40903;51.638;7.528;2023-05-18T05:39:08;102231.38;;;8.00;84.49
55010;BME280;40903;51.638;7.528;2023-05-18T05:41:34;102235.03;;;8.17;84.51
55010;BME280;40903;51.638;7.528;2023-05-18T05:43:59;102238.38;;;8.31;83.60
55010;BME280;40903;51.638;7.528;2023-05-18T05:46:24;102234.22;;;8.51;82.46
55010;BME280;40903;51.638;7.528;2023-05-18T05:48:50;102241.84;;;8.66;81.66
55010;BME280;40903;51.638;7.528;2023-05-18T05:51:15;102231.41;;;8.74;79.92
55010;BME280;40903;51.638;7.528;2023-05-18T05:53:41;102236.09;;;8.90;80.16
55010;BME280;40903;51.638;7.528;2023-05-18T05:56:07;102225.97;;;9.02;78.82
55010;BME280;40903;51.638;7.528;2023-05-18T05:58:33;102232.69;;;9.11;77.03
55010;BME280;40903;51.638;7.528;2023-05-18T06:00:58;102241.78;;;9.17;77.02
55010;BME280;40903;51.638;7.528;2023-05-18T06:03:24;102242.88;;;9.32;77.94
55010;BME280;40903;51.638;7.528;2023-05-18T06:05:49;102244.16;;;9.41;76.06
55010;BME280;40903;51.638;7.528;2023-05-18T06:08:15;102245.22;;;9.57;75.50
55010;BME280;40903;51.638;7.528;2023-05-18T06:10:41;102254.66;;;9.66;73.44
55010;BME280;40903;51.638;7.528;2023-05-18T06:13:07;102252.34;;;9.74;72.76
55010;BME280;40903;51.638;7.528;2023-05-18T06:15:32;102247.13;;;9.89;73.44
55010;BME280;40903;51.638;7.528;2023-05-18T06:17:57;102246.69;;;9.97;71.40
55010;BME280;40903;51.638;7.528;2023-05-18T06:20:23;102247.06;;;10.17;73.00
55010;BME280;40903;51.638;7.528;2023-05-18T06:22:48;102240.81;;;10.38;71.04
55010;BME280;40903;51.638;7.528;2023-05-18T06:25:13;102241.53;;;10.50;69.38
55010;BME280;40903;51.638;7.528;2023-05-18T06:27:39;102251.34;;;10.51;67.45
55010;BME280;40903;51.638;7.528;2023-05-18T06:30:06;102256.44;;;10.64;68.56
55010;BME280;40903;51.638;7.528;2023-05-18T06:32:34;102258.97;;;10.70;66.81
55010;BME280;40903;51.638;7.528;2023-05-18T06:35:01;102261.69;;;10.92;68.00
55010;BME280;40903;51.638;7.528;2023-05-18T06:37:27;102260.28;;;11.11;68.89
55010;BME280;40903;51.638;7.528;2023-05-18T06:39:53;102272.16;;;11.26;67.41
55010;BME280;40903;51.638;7.528;2023-05-18T06:42:18;102275.91;;;11.42;66.35
55010;BME280;40903;51.638;7.528;2023-05-18T06:44:43;102274.47;;;11.34;65.86
55010;BME280;40903;51.638;7.528;2023-05-18T06:47:09;102277.91;;;11.51;66.60
55010;BME280;40903;51.638;7.528;2023-05-18T06:49:34;102280.47;;;11.58;65.96
55010;BME280;40903;51.638;7.528;2023-05-18T06:51:59;102277.75;;;11.63;65.06
55010;BME280;40903;51.638;7.528;2023-05-18T06:54:25;102274.38;;;11.77;65.17
55010;BME280;40903;51.638;7.528;2023-05-18T06:56:50;102270.88;;;11.86;63.87
55010;BME280;40903;51.638;7.528;2023-05-18T06:59:19;102274.28;;;11.98;60.80
55010;BME280;40903;51.638;7.528;2023-05-18T07:01:44;102274.75;;;12.27;64.11
55010;BME280;40903;51.638;7.528;2023-05-18T07:04:09;102273.41;;;12.34;64.09
55010;BME280;40903;51.638;7.528;2023-05-18T07:06:34;102270.84;;;12.64;64.02
55010;BME280;40903;51.638;7.528;2023-05-18T07:09:01;102279.97;;;12.85;61.08
55010;BME280;40903;51.638;7.528;2023-05-18T07:11:26;102283.38;;;13.02;59.84
55010;BME280;40903;51.638;7.528;2023-05-18T07:13:51;102276.00;;;13.02;60.25
55010;BME280;40903;51.638;7.528;2023-05-18T07:16:17;102273.31;;;13.17;59.31
55010;BME280;40903;51.638;7.528;2023-05-18T07:18:42;102275.53;;;13.35;58.95
55010;BME280;40903;51.638;7.528;2023-05-18T07:21:07;102291.38;;;13.28;55.51
55010;BME280;40903;51.638;7.528;2023-05-18T07:23:32;102290.88;;;13.31;56.35
55010;BME280;40903;51.638;7.528;2023-05-18T07:25:57;102282.13;;;13.59;60.89
55010;BME280;40903;51.638;7.528;2023-05-18T07:28:23;102293.97;;;13.70;57.59
55010;BME280;40903;51.638;7.528;2023-05-18T07:30:48;102293.38;;;13.63;55.33
55010;BME280;40903;51.638;7.528;2023-05-18T07:33:13;102282.72;;;13.76;56.18
55010;BME280;40903;51.638;7.528;2023-05-18T07:35:39;102286.03;;;13.93;55.49
55010;BME280;40903;51.638;7.528;2023-05-18T07:38:04;102280.25;;;14.04;54.29
55010;BME280;40903;51.638;7.528;2023-05-18T07:40:29;102287.94;;;13.92;54.58
55010;BME280;40903;51.638;7.528;2023-05-18T07:42:54;102270.91;;;14.25;55.42
55010;BME280;40903;51.638;7.528;2023-05-18T07:45:20;102281.06;;;14.50;54.31
55010;BME280;40903;51.638;7.528;2023-05-18T07:47:47;102284.28;;;14.62;52.68
55010;BME280;40903;51.638;7.528;2023-05-18T07:50:13;102277.88;;;14.86;53.67
55010;BME280;40903;51.638;7.528;2023-05-18T07:52:38;102281.44;;;14.92;53.24
55010;BME280;40903;51.638;7.528;2023-05-18T07:55:03;102286.34;;;15.00;52.38
55010;BME280;40903;51.638;7.528;2023-05-18T07:57:29;102277.50;;;15.13;53.83
55010;BME280;40903;51.638;7.528;2023-05-18T07:59:54;102280.44;;;15.31;52.64
55010;BME280;40903;51.638;7.528;2023-05-18T08:02:20;102278.38;;;15.52;51.11
55010;BME280;40903;51.638;7.528;2023-05-18T08:04:46;102277.59;;;15.84;50.50
55010;BME280;40903;51.638;7.528;2023-05-18T08:07:11;102276.81;;;16.12;49.67
55010;BME280;40903;51.638;7.528;2023-05-18T08:09:36;102284.97;;;16.22;47.94
55010;BME280;40903;51.638;7.528;2023-05-18T08:12:02;102280.66;;;16.11;49.59
55010;BME280;40903;51.638;7.528;2023-05-18T08:14:27;102276.78;;;16.17;48.25
55010;BME280;40903;51.638;7.528;2023-05-18T08:16:56;102276.31;;;16.39;46.86
55010;BME280;40903;51.638;7.528;2023-05-18T08:19:21;102276.63;;;16.32;45.95
55010;BME280;40903;51.638;7.528;2023-05-18T08:21:47;102279.53;;;16.46;48.89
55010;BME280;40903;51.638;7.528;2023-05-18T08:24:12;102283.22;;;16.36;44.48
55010;BME280;40903;51.638;7.528;2023-05-18T08:26:37;102281.78;;;16.67;46.68
55010;BME280;40903;51.638;7.528;2023-05-18T08:29:02;102282.22;;;16.74;46.76
55010;BME280;40903;51.638;7.528;2023-05-18T08:31:34;102277.22;;;16.81;47.24
55010;BME280;40903;51.638;7.528;2023-05-18T08:34:00;102275.75;;;16.89;44.88
55010;BME280;40903;51.638;7.528;2023-05-18T08:36:25;102270.38;;;16.97;44.86
55010;BME280;40903;51.638;7.528;2023-05-18T08:38:50;102268.34;;;17.26;44.59
55010;BME280;40903;51.638;7.528;2023-05-18T08:41:18;102256.38;;;17.54;45.16
55010;BME280;40903;51.638;7.528;2023-05-18T08:43:47;102263.28;;;17.70;42.84
55010;BME280;40903;51.638;7.528;2023-05-18T08:46:49;102260.53;;;17.70;43.63
55010;BME280;40903;51.638;7.528;2023-05-18T08:49:06;102256.78;;;18.11;43.72
55010;BME280;40903;51.638;7.528;2023-05-18T08:51:34;102271.50;;;18.39;40.56
55010;BME280;40903;51.638;7.528;2023-05-18T08:54:00;102268.44;;;17.58;40.47
55010;BME280;40903;51.638;7.528;2023-05-18T08:56:26;102263.22;;;17.57;44.08
55010;BME280;40903;51.638;7.528;2023-05-18T08:58:55;102263.22;;;17.75;42.54
55010;BME280;40903;51.638;7.528;2023-05-18T09:01:20;102266.81;;;17.76;41.81
55010;BME280;40903;51.638;7.528;2023-05-18T09:03:52;102258.34;;;17.85;42.21
55010;BME280;40903;51.638;7.528;2023-05-18T09:06:17;102253.13;;;18.16;42.09
55010;BME280;40903;51.638;7.528;2023-05-18T09:08:44;102256.28;;;18.23;43.49
55010;BME280;40903;51.638;7.528;2023-05-18T09:11:10;102256.63;;;18.21;40.40
55010;BME280;40903;51.638;7.528;2023-05-18T09:13:36;102253.75;;;17.81;42.21
55010;BME280;40903;51.638;7.528;2023-05-18T09:16:02;102255.75;;;17.20;41.29
55010;BME280;40903;51.638;7.528;2023-05-18T09:18:28;102253.13;;;16.68;41.88
55010;BME280;40903;51.638;7.528;2023-05-18T09:20:53;102239.75;;;16.80;45.75
55010;BME280;40903;51.638;7.528;2023-05-18T09:23:18;102236.06;;;17.27;43.27
55010;BME280;40903;51.638;7.528;2023-05-18T09:25:44;102240.69;;;17.13;41.56
55010;BME280;40903;51.638;7.528;2023-05-18T09:28:13;102231.94;;;17.48;44.15
55010;BME280;40903;51.638;7.528;2023-05-18T09:30:41;102237.19;;;17.81;42.53
55010;BME280;40903;51.638;7.528;2023-05-18T09:33:16;102239.34;;;17.84;39.79
55010;BME280;40903;51.638;7.528;2023-05-18T09:35:43;102239.41;;;17.79;42.44
55010;BME280;40903;51.638;7.528;2023-05-18T09:38:08;102225.16;;;18.36;44.09
55010;BME280;40903;51.638;7.528;2023-05-18T09:40:33;102237.47;;;18.25;40.81
55010;BME280;40903;51.638;7.528;2023-05-18T09:42:59;102233.13;;;18.37;41.56
55010;BME280;40903;51.638;7.528;2023-05-18T09:45:30;102238.78;;;18.46;41.75
55010;BME280;40903;51.638;7.528;2023-05-18T09:47:55;102241.94;;;18.53;40.92
55010;BME280;40903;51.638;7.528;2023-05-18T09:50:21;102244.81;;;18.34;40.91
55010;BME280;40903;51.638;7.528;2023-05-18T09:52:47;102247.06;;;18.59;40.52
55010;BME280;40903;51.638;7.528;2023-05-18T09:55:19;102249.72;;;18.91;38.97
55010;BME280;40903;51.638;7.528;2023-05-18T09:57:45;102248.16;;;19.26;37.94
55010;BME280;40903;51.638;7.528;2023-05-18T10:00:11;102239.66;;;19.22;39.25
55010;BME280;40903;51.638;7.528;2023-05-18T10:02:38;102242.53;;;19.31;39.46
55010;BME280;40903;51.638;7.528;2023-05-18T10:05:05;102233.94;;;19.54;39.63
55010;BME280;40903;51.638;7.528;2023-05-18T10:07:32;102242.31;;;19.63;39.87
55010;BME280;40903;51.638;7.528;2023-05-18T10:10:02;102243.31;;;19.67;39.18
55010;BME280;40903;51.638;7.528;2023-05-18T10:12:27;102241.50;;;19.00;38.03
55010;BME280;40903;51.638;7.528;2023-05-18T10:14:53;102237.34;;;18.89;42.14
55010;BME280;40903;51.638;7.528;2023-05-18T10:17:18;102230.50;;;18.73;41.96
55010;BME280;40903;51.638;7.528;2023-05-18T10:19:44;102238.97;;;18.63;39.81
55010;BME280;40903;51.638;7.528;2023-05-18T10:22:09;102222.94;;;19.14;41.25
55010;BME280;40903;51.638;7.528;2023-05-18T10:24:40;102232.59;;;19.52;37.90
55010;BME280;40903;51.638;7.528;2023-05-18T10:27:06;102224.09;;;18.99;38.19
55010;BME280;40903;51.638;7.528;2023-05-18T10:29:33;102234.25;;;19.17;39.42
55010;BME280;40903;51.638;7.528;2023-05-18T10:31:58;102228.09;;;19.07;37.22
55010;BME280;40903;51.638;7.528;2023-05-18T10:34:27;102218.69;;;19.43;38.41
55010;BME280;40903;51.638;7.528;2023-05-18T10:36:53;102218.06;;;19.46;39.08
55010;BME280;40903;51.638;7.528;2023-05-18T10:39:18;102207.53;;;20.00;40.00
55010;BME280;40903;51.638;7.528;2023-05-18T10:41:44;102217.19;;;20.33;38.38
55010;BME280;40903;51.638;7.528;2023-05-18T10:44:10;102213.38;;;20.51;37.27
55010;BME280;40903;51.638;7.528;2023-05-18T10:46:35;102219.38;;;20.45;36.06
55010;BME280;40903;51.638;7.528;2023-05-18T10:49:02;102218.75;;;20.56;35.95
55010;BME280;40903;51.638;7.528;2023-05-18T10:51:28;102213.41;;;20.60;36.17
55010;BME280;40903;51.638;7.528;2023-05-18T10:53:53;102220.16;;;20.37;35.01
55010;BME280;40903;51.638;7.528;2023-05-18T10:56:24;102208.38;;;20.31;35.60
55010;BME280;40903;51.638;7.528;2023-05-18T10:58:50;102202.13;;;20.17;37.77
55010;BME280;40903;51.638;7.528;2023-05-18T11:01:15;102207.75;;;20.04;37.24
55010;BME280;40903;51.638;7.528;2023-05-18T11:03:41;102204.06;;;19.65;37.73
55010;BME280;40903;51.638;7.528;2023-05-18T11:06:07;102200.56;;;19.81;37.02
55010;BME280;40903;51.638;7.528;2023-05-18T11:08:40;102185.69;;;20.21;38.69
55010;BME280;40903;51.638;7.528;2023-05-18T11:11:07;102199.47;;;19.60;38.97
55010;BME280;40903;51.638;7.528;2023-05-18T11:13:33;102184.69;;;20.17;40.19
55010;BME280;40903;51.638;7.528;2023-05-18T11:21:18;102186.41;;;19.83;37.22
55010;BME280;40903;51.638;7.528;2023-05-18T11:24:11;102191.25;;;19.77;37.37
55010;BME280;40903;51.638;7.528;2023-05-18T11:26:29;102196.50;;;19.79;37.98
55010;BME280;40903;51.638;7.528;2023-05-18T11:28:55;102197.59;;;19.69;37.06
55010;BME280;40903;51.638;7.528;2023-05-18T11:31:22;102169.28;;;20.02;38.61
55010;BME280;40903;51.638;7.528;2023-05-18T11:34:52;102169.34;;;20.58;39.49
55010;BME280;40903;51.638;7.528;2023-05-18T11:36:53;102178.34;;;20.64;35.13
55010;BME280;40903;51.638;7.528;2023-05-18T11:39:22;102177.22;;;19.95;35.78
55010;BME280;40903;51.638;7.528;2023-05-18T11:41:57;102178.56;;;19.76;38.94
55010;BME280;40903;51.638;7.528;2023-05-18T11:44:22;102174.06;;;19.88;39.31
55010;BME280;40903;51.638;7.528;2023-05-18T11:46:52;102163.25;;;20.31;42.12
55010;BME280;40903;51.638;7.528;2023-05-18T11:49:19;102161.97;;;20.45;38.46
55010;BME280;40903;51.638;7.528;2023-05-18T11:54:32;102172.28;;;20.53;36.81
55010;BME280;40903;51.638;7.528;2023-05-18T11:56:57;102168.03;;;20.56;35.60
55010;BME280;40903;51.638;7.528;2023-05-18T12:01:58;102165.66;;;20.80;34.90
55010;BME280;40903;51.638;7.528;2023-05-18T12:04:24;102157.97;;;20.68;37.82
55010;BME280;40903;51.638;7.528;2023-05-18T12:06:50;102165.38;;;20.34;36.43
55010;BME280;40903;51.638;7.528;2023-05-18T12:09:17;102154.03;;;20.52;36.60
55010;BME280;40903;51.638;7.528;2023-05-18T12:11:42;102150.25;;;20.57;35.72
55010;BME280;40903;51.638;7.528;2023-05-18T12:14:07;102146.88;;;20.68;36.01
55010;BME280;40903;51.638;7.528;2023-05-18T12:16:34;102149.00;;;20.71;36.92
55010;BME280;40903;51.638;7.528;2023-05-18T12:19:00;102156.34;;;20.67;35.22
55010;BME280;40903;51.638;7.528;2023-05-18T12:21:25;102155.94;;;20.43;36.99
55010;BME280;40903;51.638;7.528;2023-05-18T12:23:56;102156.38;;;20.28;35.61
55010;BME280;40903;51.638;7.528;2023-05-18T12:26:21;102143.56;;;20.49;35.23
55010;BME280;40903;51.638;7.528;2023-05-18T12:28:50;102131.78;;;21.00;37.66
55010;BME280;40903;51.638;7.528;2023-05-18T12:31:15;102136.19;;;21.43;36.55
55010;BME280;40903;51.638;7.528;2023-05-18T12:33:41;102139.28;;;21.33;33.86
55010;BME280;40903;51.638;7.528;2023-05-18T12:36:09;102130.25;;;21.70;37.66
55010;BME280;40903;51.638;7.528;2023-05-18T12:38:35;102131.75;;;21.51;35.62
55010;BME280;40903;51.638;7.528;2023-05-18T12:41:00;102133.56;;;21.21;33.56
55010;BME280;40903;51.638;7.528;2023-05-18T12:43:26;102129.31;;;21.41;36.69
55010;BME280;40903;51.638;7.528;2023-05-18T12:45:51;102136.81;;;21.49;35.21
55010;BME280;40903;51.638;7.528;2023-05-18T12:48:17;102128.81;;;21.56;34.90
55010;BME280;40903;51.638;7.528;2023-05-18T12:50:45;102130.28;;;21.36;34.47
55010;BME280;40903;51.638;7.528;2023-05-18T12:53:11;102136.16;;;20.92;33.94
55010;BME280;40903;51.638;7.528;2023-05-18T12:55:37;102131.44;;;21.35;33.41
55010;BME280;40903;51.638;7.528;2023-05-18T12:58:15;102114.88;;;21.81;37.02
55010;BME280;40903;51.638;7.528;2023-05-18T13:00:43;102120.25;;;21.95;36.01
55010;BME280;40903;51.638;7.528;2023-05-18T13:03:09;102123.84;;;22.24;34.46
55010;BME280;40903;51.638;7.528;2023-05-18T13:05:35;102125.22;;;22.18;33.02
55010;BME280;40903;51.638;7.528;2023-05-18T13:08:00;102114.59;;;21.40;34.16
55010;BME280;40903;51.638;7.528;2023-05-18T13:10:28;102123.13;;;21.18;33.61
55010;BME280;40903;51.638;7.528;2023-05-18T13:12:54;102115.63;;;21.27;35.16